sensor_id;sensor_type;location;lat;lon;timestamp;temperature;humidity
3356;DHT22;1691;52.486;13.374;2024-03-06T00:00:15;3.70;91.90
3356;DHT22;1691;52.486;13.374;2024-03-06T00:02:42;3.70;91.90
3356;DHT22;1691;52.486;13.374;2024-03-06T00:05:09;3.70;92.00
3356;DHT22;1691;52.486;13.374;2024-03-06T00:07:36;3.60;92.00
3356;DHT22;1691;52.486;13.374;2024-03-06T00:10:04;3.60;92.00
3356;DHT22;1691;52.486;13.374;2024-03-06T00:12:32;3.60;92.10
3356;DHT22;1691;52.486;13.374;2024-03-06T00:15:00;3.60;92.20
3356;DHT22;1691;52.486;13.374;2024-03-06T00:17:29;3.50;92.20
3356;DHT22;1691;52.486;13.374;2024-03-06T00:19:56;3.50;92.30
3356;DHT22;1691;52.486;13.374;2024-03-06T00:22:23;3.50;92.40
3356;DHT22;1691;52.486;13.374;2024-03-06T00:24:51;3.50;92.40
3356;DHT22;1691;52.486;13.374;2024-03-06T00:27:18;3.50;92.60
3356;DHT22;1691;52.486;13.374;2024-03-06T00:29:46;3.50;92.60
3356;DHT22;1691;52.486;13.374;2024-03-06T00:32:13;3.50;92.70
3356;DHT22;1691;52.486;13.374;2024-03-06T00:34:40;3.60;92.70
3356;DHT22;1691;52.486;13.374;2024-03-06T00:37:08;3.50;92.70
3356;DHT22;1691;52.486;13.374;2024-03-06T00:39:35;3.50;92.70
3356;DHT22;1691;52.486;13.374;2024-03-06T00:42:02;3.50;92.70
3356;DHT22;1691;52.486;13.374;2024-03-06T00:44:29;3.50;92.70
3356;DHT22;1691;52.486;13.374;2024-03-06T00:46:57;3.50;92.80
3356;DHT22;1691;52.486;13.374;2024-03-06T00:49:24;3.50;92.80
3356;DHT22;1691;52.486;13.374;2024-03-06T00:51:50;3.50;92.90
3356;DHT22;1691;52.486;13.374;2024-03-06T00:54:17;3.50;93.00
3356;DHT22;1691;52.486;13.374;2024-03-06T00:56:44;3.50;93.00
3356;DHT22;1691;52.486;13.374;2024-03-06T00:59:11;3.50;93.20
3356;DHT22;1691;52.486;13.374;2024-03-06T01:01:40;3.40;93.20
3356;DHT22;1691;52.486;13.374;2024-03-06T01:04:07;3.40;93.30
3356;DHT22;1691;52.486;13.374;2024-03-06T01:06:34;3.50;93.40
3356;DHT22;1691;52.486;13.374;2024-03-06T01:09:01;3.50;93.30
3356;DHT22;1691;52.486;13.374;2024-03-06T01:11:28;3.50;93.30
3356;DHT22;1691;52.486;13.374;2024-03-06T01:13:55;3.50;93.30
3356;DHT22;1691;52.486;13.374;2024-03-06T01:16:22;3.50;93.30
3356;DHT22;1691;52.486;13.374;2024-03-06T01:18:49;3.50;93.50
3356;DHT22;1691;52.486;13.374;2024-03-06T01:21:16;3.50;93.60
3356;DHT22;1691;52.486;13.374;2024-03-06T01:23:43;3.40;93.60
3356;DHT22;1691;52.486;13.374;2024-03-06T01:26:10;3.40;93.60
3356;DHT22;1691;52.486;13.374;2024-03-06T01:28:38;3.40;93.70
3356;DHT22;1691;52.486;13.374;2024-03-06T01:31:06;3.40;93.80
3356;DHT22;1691;52.486;13.374;2024-03-06T01:33:34;3.40;93.80
3356;DHT22;1691;52.486;13.374;2024-03-06T01:36:01;3.40;93.80
3356;DHT22;1691;52.486;13.374;2024-03-06T01:38:28;3.40;93.90
3356;DHT22;1691;52.486;13.374;2024-03-06T01:40:55;3.40;93.90
3356;DHT22;1691;52.486;13.374;2024-03-06T01:43:24;3.30;93.90
3356;DHT22;1691;52.486;13.374;2024-03-06T01:45:53;3.30;93.90
3356;DHT22;1691;52.486;13.374;2024-03-06T01:48:23;3.30;94.00
3356;DHT22;1691;52.486;13.374;2024-03-06T01:50:56;3.30;94.00
3356;DHT22;1691;52.486;13.374;2024-03-06T01:53:26;3.30;94.00
3356;DHT22;1691;52.486;13.374;2024-03-06T01:55:54;3.30;94.10
3356;DHT22;1691;52.486;13.374;2024-03-06T01:58:23;3.30;94.10
3356;DHT22;1691;52.486;13.374;2024-03-06T02:00:51;3.30;94.20
3356;DHT22;1691;52.486;13.374;2024-03-06T02:03:18;3.30;94.30
3356;DHT22;1691;52.486;13.374;2024-03-06T02:05:48;3.30;94.30
3356;DHT22;1691;52.486;13.374;2024-03-06T02:08:16;3.30;94.30
3356;DHT22;1691;52.486;13.374;2024-03-06T02:10:45;3.30;94.30
3356;DHT22;1691;52.486;13.374;2024-03-06T02:13:13;3.30;94.30
3356;DHT22;1691;52.486;13.374;2024-03-06T02:15:42;3.30;94.40
3356;DHT22;1691;52.486;13.374;2024-03-06T02:18:14;3.20;94.40
3356;DHT22;1691;52.486;13.374;2024-03-06T02:20:41;3.20;94.50
3356;DHT22;1691;52.486;13.374;2024-03-06T02:23:08;3.20;94.60
3356;DHT22;1691;52.486;13.374;2024-03-06T02:25:36;3.20;94.60
3356;DHT22;1691;52.486;13.374;2024-03-06T02:28:03;3.20;94.80
3356;DHT22;1691;52.486;13.374;2024-03-06T02:30:33;3.20;94.80
3356;DHT22;1691;52.486;13.374;2024-03-06T02:33:04;3.10;94.90
3356;DHT22;1691;52.486;13.374;2024-03-06T02:35:33;3.10;94.90
3356;DHT22;1691;52.486;13.374;2024-03-06T02:38:04;3.10;95.00
3356;DHT22;1691;52.486;13.374;2024-03-06T02:40:32;3.10;95.00
3356;DHT22;1691;52.486;13.374;2024-03-06T02:42:59;3.10;95.10
3356;DHT22;1691;52.486;13.374;2024-03-06T02:45:26;3.00;95.10
3356;DHT22;1691;52.486;13.374;2024-03-06T02:47:54;3.00;95.10
3356;DHT22;1691;52.486;13.374;2024-03-06T02:50:21;3.00;95.20
3356;DHT22;1691;52.486;13.374;2024-03-06T02:52:50;3.00;95.30
3356;DHT22;1691;52.486;13.374;2024-03-06T02:55:18;3.00;95.40
3356;DHT22;1691;52.486;13.374;2024-03-06T02:57:46;3.00;95.40
3356;DHT22;1691;52.486;13.374;2024-03-06T03:00:13;3.00;95.40
3356;DHT22;1691;52.486;13.374;2024-03-06T03:02:42;3.00;95.40
3356;DHT22;1691;52.486;13.374;2024-03-06T03:05:10;3.00;95.50
3356;DHT22;1691;52.486;13.374;2024-03-06T03:07:37;3.00;95.50
3356;DHT22;1691;52.486;13.374;2024-03-06T03:10:04;3.00;95.50
3356;DHT22;1691;52.486;13.374;2024-03-06T03:12:31;3.00;95.60
3356;DHT22;1691;52.486;13.374;2024-03-06T03:14:59;3.00;95.70
3356;DHT22;1691;52.486;13.374;2024-03-06T03:17:26;2.90;95.70
3356;DHT22;1691;52.486;13.374;2024-03-06T03:19:53;2.90;95.80
3356;DHT22;1691;52.486;13.374;2024-03-06T03:22:20;3.00;95.80
3356;DHT22;1691;52.486;13.374;2024-03-06T03:24:47;3.00;95.80
3356;DHT22;1691;52.486;13.374;2024-03-06T03:27:14;3.00;95.80
3356;DHT22;1691;52.486;13.374;2024-03-06T03:29:41;3.00;95.70
3356;DHT22;1691;52.486;13.374;2024-03-06T03:32:08;3.00;95.80
3356;DHT22;1691;52.486;13.374;2024-03-06T03:34:35;3.00;95.80
3356;DHT22;1691;52.486;13.374;2024-03-06T03:37:02;3.00;95.90
3356;DHT22;1691;52.486;13.374;2024-03-06T03:39:29;3.00;95.90
3356;DHT22;1691;52.486;13.374;2024-03-06T03:41:57;2.90;95.90
3356;DHT22;1691;52.486;13.374;2024-03-06T03:44:24;2.90;96.00
3356;DHT22;1691;52.486;13.374;2024-03-06T03:46:51;3.00;96.00
3356;DHT22;1691;52.486;13.374;2024-03-06T03:49:18;2.90;96.00
3356;DHT22;1691;52.486;13.374;2024-03-06T03:51:45;2.90;96.00
3356;DHT22;1691;52.486;13.374;2024-03-06T03:54:12;2.90;96.00
3356;DHT22;1691;52.486;13.374;2024-03-06T03:56:40;2.90;96.10
3356;DHT22;1691;52.486;13.374;2024-03-06T03:59:07;2.90;96.10
3356;DHT22;1691;52.486;13.374;2024-03-06T04:01:34;2.90;96.10
3356;DHT22;1691;52.486;13.374;2024-03-06T04:04:02;2.90;96.30
3356;DHT22;1691;52.486;13.374;2024-03-06T04:06:29;2.90;96.30
3356;DHT22;1691;52.486;13.374;2024-03-06T04:08:56;2.90;96.40
3356;DHT22;1691;52.486;13.374;2024-03-06T04:11:23;2.90;96.40
3356;DHT22;1691;52.486;13.374;2024-03-06T04:13:51;2.90;96.40
3356;DHT22;1691;52.486;13.374;2024-03-06T04:16:18;2.90;96.40
3356;DHT22;1691;52.486;13.374;2024-03-06T04:18:46;2.90;96.40
3356;DHT22;1691;52.486;13.374;2024-03-06T04:21:13;2.90;96.40
3356;DHT22;1691;52.486;13.374;2024-03-06T04:23:43;2.90;96.40
3356;DHT22;1691;52.486;13.374;2024-03-06T04:26:11;2.80;96.50
3356;DHT22;1691;52.486;13.374;2024-03-06T04:28:38;2.80;96.50
3356;DHT22;1691;52.486;13.374;2024-03-06T04:31:06;2.80;96.60
3356;DHT22;1691;52.486;13.374;2024-03-06T04:33:33;2.80;96.70
3356;DHT22;1691;52.486;13.374;2024-03-06T04:36:04;2.80;96.70
3356;DHT22;1691;52.486;13.374;2024-03-06T04:38:35;2.80;96.70
3356;DHT22;1691;52.486;13.374;2024-03-06T04:41:02;2.70;96.80
3356;DHT22;1691;52.486;13.374;2024-03-06T04:43:29;2.70;96.80
3356;DHT22;1691;52.486;13.374;2024-03-06T04:45:56;2.80;96.80
3356;DHT22;1691;52.486;13.374;2024-03-06T04:48:23;2.80;96.90
3356;DHT22;1691;52.486;13.374;2024-03-06T04:50:50;2.80;96.80
3356;DHT22;1691;52.486;13.374;2024-03-06T04:53:17;2.80;96.80
3356;DHT22;1691;52.486;13.374;2024-03-06T04:55:46;2.80;96.80
3356;DHT22;1691;52.486;13.374;2024-03-06T04:58:13;2.80;96.80
3356;DHT22;1691;52.486;13.374;2024-03-06T05:00:40;2.80;96.80
3356;DHT22;1691;52.486;13.374;2024-03-06T05:03:07;2.80;96.80
3356;DHT22;1691;52.486;13.374;2024-03-06T05:05:52;2.80;96.90
3356;DHT22;1691;52.486;13.374;2024-03-06T05:08:37;2.80;96.90
3356;DHT22;1691;52.486;13.374;2024-03-06T05:11:22;2.80;96.90
3356;DHT22;1691;52.486;13.374;2024-03-06T05:14:06;2.80;96.90
3356;DHT22;1691;52.486;13.374;2024-03-06T05:16:51;2.70;96.90
3356;DHT22;1691;52.486;13.374;2024-03-06T05:19:37;2.70;97.00
3356;DHT22;1691;52.486;13.374;2024-03-06T05:22:22;2.70;97.00
3356;DHT22;1691;52.486;13.374;2024-03-06T05:25:07;2.70;97.00
3356;DHT22;1691;52.486;13.374;2024-03-06T05:27:52;2.70;97.10
3356;DHT22;1691;52.486;13.374;2024-03-06T05:30:37;2.80;97.20
3356;DHT22;1691;52.486;13.374;2024-03-06T05:33:21;2.80;97.20
3356;DHT22;1691;52.486;13.374;2024-03-06T05:36:06;2.90;97.20
3356;DHT22;1691;52.486;13.374;2024-03-06T05:38:50;2.90;97.20
3356;DHT22;1691;52.486;13.374;2024-03-06T05:41:35;2.90;97.20
3356;DHT22;1691;52.486;13.374;2024-03-06T05:44:20;2.90;97.20
3356;DHT22;1691;52.486;13.374;2024-03-06T05:47:04;2.90;97.30
3356;DHT22;1691;52.486;13.374;2024-03-06T05:49:50;2.90;97.40
3356;DHT22;1691;52.486;13.374;2024-03-06T05:52:35;2.90;97.40
3356;DHT22;1691;52.486;13.374;2024-03-06T05:55:20;2.90;97.60
3356;DHT22;1691;52.486;13.374;2024-03-06T05:58:05;2.90;97.70
3356;DHT22;1691;52.486;13.374;2024-03-06T06:00:39;2.90;97.70
3356;DHT22;1691;52.486;13.374;2024-03-06T06:03:07;2.90;97.80
3356;DHT22;1691;52.486;13.374;2024-03-06T06:05:37;3.00;97.80
3356;DHT22;1691;52.486;13.374;2024-03-06T06:08:05;3.00;97.80
3356;DHT22;1691;52.486;13.374;2024-03-06T06:10:33;3.10;97.90
3356;DHT22;1691;52.486;13.374;2024-03-06T06:13:01;3.20;98.10
3356;DHT22;1691;52.486;13.374;2024-03-06T06:15:32;3.40;98.20
3356;DHT22;1691;52.486;13.374;2024-03-06T06:17:59;3.70;98.30
3356;DHT22;1691;52.486;13.374;2024-03-06T06:20:26;4.00;98.20
3356;DHT22;1691;52.486;13.374;2024-03-06T06:22:53;4.30;98.20
3356;DHT22;1691;52.486;13.374;2024-03-06T06:25:21;4.70;98.10
3356;DHT22;1691;52.486;13.374;2024-03-06T06:27:48;5.10;98.00
3356;DHT22;1691;52.486;13.374;2024-03-06T06:30:16;5.40;97.60
3356;DHT22;1691;52.486;13.374;2024-03-06T06:32:44;5.80;97.30
3356;DHT22;1691;52.486;13.374;2024-03-06T06:35:11;6.10;96.80
3356;DHT22;1691;52.486;13.374;2024-03-06T06:37:41;6.40;96.50
3356;DHT22;1691;52.486;13.374;2024-03-06T06:40:08;6.80;96.30
3356;DHT22;1691;52.486;13.374;2024-03-06T06:42:36;7.10;95.90
3356;DHT22;1691;52.486;13.374;2024-03-06T06:45:04;7.50;95.20
3356;DHT22;1691;52.486;13.374;2024-03-06T06:47:36;7.80;94.40
3356;DHT22;1691;52.486;13.374;2024-03-06T06:50:04;8.00;94.00
3356;DHT22;1691;52.486;13.374;2024-03-06T06:52:32;8.20;93.50
3356;DHT22;1691;52.486;13.374;2024-03-06T06:55:01;8.50;92.90
3356;DHT22;1691;52.486;13.374;2024-03-06T06:57:30;8.80;92.20
3356;DHT22;1691;52.486;13.374;2024-03-06T06:59:57;8.90;91.60
3356;DHT22;1691;52.486;13.374;2024-03-06T07:02:24;9.10;91.00
3356;DHT22;1691;52.486;13.374;2024-03-06T07:04:52;9.30;90.50
3356;DHT22;1691;52.486;13.374;2024-03-06T07:07:19;9.70;90.10
3356;DHT22;1691;52.486;13.374;2024-03-06T07:09:46;10.10;88.60
3356;DHT22;1691;52.486;13.374;2024-03-06T07:12:13;10.40;86.90
3356;DHT22;1691;52.486;13.374;2024-03-06T07:14:40;10.70;85.40
3356;DHT22;1691;52.486;13.374;2024-03-06T07:17:08;10.90;83.60
3356;DHT22;1691;52.486;13.374;2024-03-06T07:19:35;11.20;83.00
3356;DHT22;1691;52.486;13.374;2024-03-06T07:22:02;11.60;81.50
3356;DHT22;1691;52.486;13.374;2024-03-06T07:24:29;12.00;79.70
3356;DHT22;1691;52.486;13.374;2024-03-06T07:26:56;12.20;78.00
3356;DHT22;1691;52.486;13.374;2024-03-06T07:29:24;12.50;76.70
3356;DHT22;1691;52.486;13.374;2024-03-06T07:31:51;12.90;75.20
3356;DHT22;1691;52.486;13.374;2024-03-06T07:34:18;13.20;73.30
3356;DHT22;1691;52.486;13.374;2024-03-06T07:36:45;13.50;72.00
3356;DHT22;1691;52.486;13.374;2024-03-06T07:39:15;13.90;70.70
3356;DHT22;1691;52.486;13.374;2024-03-06T07:41:42;14.20;69.00
3356;DHT22;1691;52.486;13.374;2024-03-06T07:44:09;14.40;67.50
3356;DHT22;1691;52.486;13.374;2024-03-06T07:46:36;14.70;66.60
3356;DHT22;1691;52.486;13.374;2024-03-06T07:49:03;15.00;64.90
3356;DHT22;1691;52.486;13.374;2024-03-06T07:51:35;15.20;63.80
3356;DHT22;1691;52.486;13.374;2024-03-06T07:54:02;15.50;63.10
3356;DHT22;1691;52.486;13.374;2024-03-06T07:56:32;15.70;61.80
3356;DHT22;1691;52.486;13.374;2024-03-06T07:59:00;15.90;60.30
3356;DHT22;1691;52.486;13.374;2024-03-06T08:01:28;16.00;59.50
3356;DHT22;1691;52.486;13.374;2024-03-06T08:03:55;16.30;59.00
3356;DHT22;1691;52.486;13.374;2024-03-06T08:06:23;16.90;58.10
3356;DHT22;1691;52.486;13.374;2024-03-06T08:08:50;17.30;56.70
3356;DHT22;1691;52.486;13.374;2024-03-06T08:11:18;17.80;55.50
3356;DHT22;1691;52.486;13.374;2024-03-06T08:13:49;18.20;53.80
3356;DHT22;1691;52.486;13.374;2024-03-06T08:16:16;18.40;53.20
3356;DHT22;1691;52.486;13.374;2024-03-06T08:18:44;18.60;52.40
3356;DHT22;1691;52.486;13.374;2024-03-06T08:21:11;18.70;51.60
3356;DHT22;1691;52.486;13.374;2024-03-06T08:23:38;18.80;51.00
3356;DHT22;1691;52.486;13.374;2024-03-06T08:26:05;18.80;50.20
3356;DHT22;1691;52.486;13.374;2024-03-06T08:28:32;18.70;49.30
3356;DHT22;1691;52.486;13.374;2024-03-06T08:31:00;18.60;49.20
3356;DHT22;1691;52.486;13.374;2024-03-06T08:33:27;18.70;48.90
3356;DHT22;1691;52.486;13.374;2024-03-06T08:35:54;18.90;48.10
3356;DHT22;1691;52.486;13.374;2024-03-06T08:38:21;19.00;47.80
3356;DHT22;1691;52.486;13.374;2024-03-06T08:40:48;19.10;47.30
3356;DHT22;1691;52.486;13.374;2024-03-06T08:43:16;19.20;47.20
3356;DHT22;1691;52.486;13.374;2024-03-06T08:45:43;19.40;46.90
3356;DHT22;1691;52.486;13.374;2024-03-06T08:48:10;19.70;46.10
3356;DHT22;1691;52.486;13.374;2024-03-06T08:50:38;19.90;45.20
3356;DHT22;1691;52.486;13.374;2024-03-06T08:53:06;19.60;44.50
3356;DHT22;1691;52.486;13.374;2024-03-06T08:55:35;19.20;44.10
3356;DHT22;1691;52.486;13.374;2024-03-06T08:58:03;18.80;44.40
3356;DHT22;1691;52.486;13.374;2024-03-06T09:00:30;18.90;44.90
3356;DHT22;1691;52.486;13.374;2024-03-06T09:02:57;19.20;44.20
3356;DHT22;1691;52.486;13.374;2024-03-06T09:05:24;19.50;43.60
3356;DHT22;1691;52.486;13.374;2024-03-06T09:07:51;19.80;43.20
3356;DHT22;1691;52.486;13.374;2024-03-06T09:10:18;20.00;42.40
3356;DHT22;1691;52.486;13.374;2024-03-06T09:12:48;19.80;42.10
3356;DHT22;1691;52.486;13.374;2024-03-06T09:15:15;19.50;42.10
3356;DHT22;1691;52.486;13.374;2024-03-06T09:17:43;19.50;42.10
3356;DHT22;1691;52.486;13.374;2024-03-06T09:20:11;19.50;41.90
3356;DHT22;1691;52.486;13.374;2024-03-06T09:22:41;19.50;41.60
3356;DHT22;1691;52.486;13.374;2024-03-06T09:25:09;19.50;41.00
3356;DHT22;1691;52.486;13.374;2024-03-06T09:27:39;19.40;41.00
3356;DHT22;1691;52.486;13.374;2024-03-06T09:30:06;19.50;40.90
3356;DHT22;1691;52.486;13.374;2024-03-06T09:32:37;19.70;40.50
3356;DHT22;1691;52.486;13.374;2024-03-06T09:35:05;19.70;39.90
3356;DHT22;1691;52.486;13.374;2024-03-06T09:37:33;19.30;40.20
3356;DHT22;1691;52.486;13.374;2024-03-06T09:40:00;19.10;40.20
3356;DHT22;1691;52.486;13.374;2024-03-06T09:42:27;18.20;40.70
3356;DHT22;1691;52.486;13.374;2024-03-06T09:44:54;17.00;42.10
3356;DHT22;1691;52.486;13.374;2024-03-06T09:47:22;16.20;43.20
3356;DHT22;1691;52.486;13.374;2024-03-06T09:49:52;15.30;44.90
3356;DHT22;1691;52.486;13.374;2024-03-06T09:52:24;14.60;46.10
3356;DHT22;1691;52.486;13.374;2024-03-06T09:54:54;13.80;47.30
3356;DHT22;1691;52.486;13.374;2024-03-06T09:57:22;13.00;49.00
3356;DHT22;1691;52.486;13.374;2024-03-06T09:59:49;12.30;50.50
3356;DHT22;1691;52.486;13.374;2024-03-06T10:02:37;11.70;51.60
3356;DHT22;1691;52.486;13.374;2024-03-06T10:05:06;11.40;53.00
3356;DHT22;1691;52.486;13.374;2024-03-06T10:07:33;11.40;53.60
3356;DHT22;1691;52.486;13.374;2024-03-06T10:10:01;11.60;53.90
3356;DHT22;1691;52.486;13.374;2024-03-06T10:12:28;12.30;53.80
3356;DHT22;1691;52.486;13.374;2024-03-06T10:14:56;13.40;52.50
3356;DHT22;1691;52.486;13.374;2024-03-06T10:17:24;14.60;50.70
3356;DHT22;1691;52.486;13.374;2024-03-06T10:19:54;15.70;49.20
3356;DHT22;1691;52.486;13.374;2024-03-06T10:22:21;16.60;47.30
3356;DHT22;1691;52.486;13.374;2024-03-06T10:24:55;16.90;45.90
3356;DHT22;1691;52.486;13.374;2024-03-06T10:27:26;16.60;45.30
3356;DHT22;1691;52.486;13.374;2024-03-06T10:30:04;15.90;45.90
3356;DHT22;1691;52.486;13.374;2024-03-06T10:32:33;15.10;46.90
3356;DHT22;1691;52.486;13.374;2024-03-06T10:35:01;14.60;48.10
3356;DHT22;1691;52.486;13.374;2024-03-06T10:37:29;14.10;48.90
3356;DHT22;1691;52.486;13.374;2024-03-06T10:39:58;13.60;49.60
3356;DHT22;1691;52.486;13.374;2024-03-06T10:42:33;13.10;50.20
3356;DHT22;1691;52.486;13.374;2024-03-06T10:45:02;12.70;51.20
3356;DHT22;1691;52.486;13.374;2024-03-06T10:47:30;12.60;51.90
3356;DHT22;1691;52.486;13.374;2024-03-06T10:49:59;12.70;51.80
3356;DHT22;1691;52.486;13.374;2024-03-06T10:52:27;12.60;51.90
3356;DHT22;1691;52.486;13.374;2024-03-06T10:54:55;12.60;52.10
3356;DHT22;1691;52.486;13.374;2024-03-06T10:57:25;12.80;52.20
3356;DHT22;1691;52.486;13.374;2024-03-06T10:59:53;13.10;51.80
3356;DHT22;1691;52.486;13.374;2024-03-06T11:02:22;13.30;51.20
3356;DHT22;1691;52.486;13.374;2024-03-06T11:04:51;13.50;51.00
3356;DHT22;1691;52.486;13.374;2024-03-06T11:07:18;13.80;50.70
3356;DHT22;1691;52.486;13.374;2024-03-06T11:09:46;13.90;50.20
3356;DHT22;1691;52.486;13.374;2024-03-06T11:12:38;13.60;50.40
3356;DHT22;1691;52.486;13.374;2024-03-06T11:15:24;13.10;51.00
3356;DHT22;1691;52.486;13.374;2024-03-06T11:17:51;12.60;52.10
3356;DHT22;1691;52.486;13.374;2024-03-06T11:20:21;12.10;53.20
3356;DHT22;1691;52.486;13.374;2024-03-06T11:28:35;10.80;56.40
3356;DHT22;1691;52.486;13.374;2024-03-06T11:31:06;10.60;57.00
3356;DHT22;1691;52.486;13.374;2024-03-06T11:33:43;10.50;57.30
3356;DHT22;1691;52.486;13.374;2024-03-06T11:36:21;10.40;57.50
3356;DHT22;1691;52.486;13.374;2024-03-06T11:39:08;10.40;57.60
3356;DHT22;1691;52.486;13.374;2024-03-06T11:44:19;10.70;57.50
3356;DHT22;1691;52.486;13.374;2024-03-06T11:49:31;10.60;57.80
3356;DHT22;1691;52.486;13.374;2024-03-06T11:52:06;10.50;57.90
3356;DHT22;1691;52.486;13.374;2024-03-06T11:54:37;10.30;58.50
3356;DHT22;1691;52.486;13.374;2024-03-06T11:57:05;10.10;59.00
3356;DHT22;1691;52.486;13.374;2024-03-06T11:59:35;10.00;59.50
3356;DHT22;1691;52.486;13.374;2024-03-06T12:02:05;9.90;59.60
3356;DHT22;1691;52.486;13.374;2024-03-06T12:04:34;9.80;59.90
3356;DHT22;1691;52.486;13.374;2024-03-06T12:07:05;9.80;60.10
3356;DHT22;1691;52.486;13.374;2024-03-06T12:09:37;9.90;59.90
3356;DHT22;1691;52.486;13.374;2024-03-06T12:12:09;10.10;59.80
3356;DHT22;1691;52.486;13.374;2024-03-06T12:14:38;10.20;59.60
3356;DHT22;1691;52.486;13.374;2024-03-06T12:17:11;10.40;59.20
3356;DHT22;1691;52.486;13.374;2024-03-06T12:19:43;10.40;58.50
3356;DHT22;1691;52.486;13.374;2024-03-06T12:22:13;10.50;58.20
3356;DHT22;1691;52.486;13.374;2024-03-06T12:24:45;10.50;58.10
3356;DHT22;1691;52.486;13.374;2024-03-06T12:27:12;10.50;58.10
3356;DHT22;1691;52.486;13.374;2024-03-06T12:29:40;10.50;58.20
3356;DHT22;1691;52.486;13.374;2024-03-06T12:32:16;10.70;58.20
3356;DHT22;1691;52.486;13.374;2024-03-06T12:34:56;10.80;57.60
3356;DHT22;1691;52.486;13.374;2024-03-06T12:37:30;10.90;57.50
3356;DHT22;1691;52.486;13.374;2024-03-06T12:39:59;10.90;57.20
3356;DHT22;1691;52.486;13.374;2024-03-06T12:42:26;10.90;57.20
3356;DHT22;1691;52.486;13.374;2024-03-06T12:44:53;11.10;57.20
3356;DHT22;1691;52.486;13.374;2024-03-06T12:47:21;11.20;57.00
3356;DHT22;1691;52.486;13.374;2024-03-06T12:49:48;11.30;56.70
3356;DHT22;1691;52.486;13.374;2024-03-06T12:52:15;11.30;56.50
3356;DHT22;1691;52.486;13.374;2024-03-06T12:54:42;11.30;56.50
3356;DHT22;1691;52.486;13.374;2024-03-06T12:57:09;11.30;56.50
3356;DHT22;1691;52.486;13.374;2024-03-06T12:59:39;11.30;56.20
3356;DHT22;1691;52.486;13.374;2024-03-06T13:02:07;11.30;56.10
3356;DHT22;1691;52.486;13.374;2024-03-06T13:04:34;11.20;56.10
3356;DHT22;1691;52.486;13.374;2024-03-06T13:07:01;11.10;56.20
3356;DHT22;1691;52.486;13.374;2024-03-06T13:09:29;11.00;56.50
3356;DHT22;1691;52.486;13.374;2024-03-06T13:11:56;10.90;56.90
3356;DHT22;1691;52.486;13.374;2024-03-06T13:14:23;10.80;57.00
3356;DHT22;1691;52.486;13.374;2024-03-06T13:16:50;10.80;57.20
3356;DHT22;1691;52.486;13.374;2024-03-06T13:19:17;10.80;57.50
3356;DHT22;1691;52.486;13.374;2024-03-06T13:21:44;10.80;57.60
3356;DHT22;1691;52.486;13.374;2024-03-06T13:24:11;10.70;57.90
3356;DHT22;1691;52.486;13.374;2024-03-06T13:26:38;10.70;58.20
3356;DHT22;1691;52.486;13.374;2024-03-06T13:29:07;10.60;58.40
3356;DHT22;1691;52.486;13.374;2024-03-06T13:31:34;10.50;58.50
3356;DHT22;1691;52.486;13.374;2024-03-06T13:34:02;10.30;58.90
3356;DHT22;1691;52.486;13.374;2024-03-06T13:36:30;10.20;59.20
3356;DHT22;1691;52.486;13.374;2024-03-06T13:38:57;10.10;59.50
3356;DHT22;1691;52.486;13.374;2024-03-06T13:41:25;10.00;59.60
3356;DHT22;1691;52.486;13.374;2024-03-06T13:43:55;10.00;59.80
3356;DHT22;1691;52.486;13.374;2024-03-06T13:46:22;10.00;59.80
3356;DHT22;1691;52.486;13.374;2024-03-06T13:48:49;10.00;59.80
3356;DHT22;1691;52.486;13.374;2024-03-06T13:51:16;10.10;59.90
3356;DHT22;1691;52.486;13.374;2024-03-06T13:53:43;10.10;59.80
3356;DHT22;1691;52.486;13.374;2024-03-06T13:56:10;10.20;59.50
3356;DHT22;1691;52.486;13.374;2024-03-06T13:58:37;10.20;59.30
3356;DHT22;1691;52.486;13.374;2024-03-06T14:01:05;10.10;59.20
3356;DHT22;1691;52.486;13.374;2024-03-06T14:03:32;10.10;59.20
3356;DHT22;1691;52.486;13.374;2024-03-06T14:06:06;10.10;59.00
3356;DHT22;1691;52.486;13.374;2024-03-06T14:08:35;10.00;59.00
3356;DHT22;1691;52.486;13.374;2024-03-06T14:11:02;9.90;59.20
3356;DHT22;1691;52.486;13.374;2024-03-06T14:13:32;9.90;59.30
3356;DHT22;1691;52.486;13.374;2024-03-06T14:15:59;9.90;59.20
3356;DHT22;1691;52.486;13.374;2024-03-06T14:18:27;9.90;59.00
3356;DHT22;1691;52.486;13.374;2024-03-06T14:20:55;9.80;58.90
3356;DHT22;1691;52.486;13.374;2024-03-06T14:23:22;9.70;59.00
3356;DHT22;1691;52.486;13.374;2024-03-06T14:25:49;9.60;59.00
3356;DHT22;1691;52.486;13.374;2024-03-06T14:28:17;9.60;59.00
3356;DHT22;1691;52.486;13.374;2024-03-06T14:30:44;9.60;58.70
3356;DHT22;1691;52.486;13.374;2024-03-06T14:33:11;9.60;58.70
3356;DHT22;1691;52.486;13.374;2024-03-06T14:35:39;9.60;58.70
3356;DHT22;1691;52.486;13.374;2024-03-06T14:38:06;9.60;58.50
3356;DHT22;1691;52.486;13.374;2024-03-06T14:40:33;9.60;58.50
3356;DHT22;1691;52.486;13.374;2024-03-06T14:43:00;9.60;58.50
3356;DHT22;1691;52.486;13.374;2024-03-06T14:45:28;9.60;58.50
3356;DHT22;1691;52.486;13.374;2024-03-06T14:47:55;9.60;58.50
3356;DHT22;1691;52.486;13.374;2024-03-06T14:50:22;9.60;58.70
3356;DHT22;1691;52.486;13.374;2024-03-06T14:52:50;9.60;58.50
3356;DHT22;1691;52.486;13.374;2024-03-06T14:55:17;9.70;58.70
3356;DHT22;1691;52.486;13.374;2024-03-06T14:57:44;9.70;58.70
3356;DHT22;1691;52.486;13.374;2024-03-06T15:00:11;9.70;58.50
3356;DHT22;1691;52.486;13.374;2024-03-06T15:02:40;9.60;58.70
3356;DHT22;1691;52.486;13.374;2024-03-06T15:05:07;9.60;58.90
3356;DHT22;1691;52.486;13.374;2024-03-06T15:07:34;9.50;58.90
3356;DHT22;1691;52.486;13.374;2024-03-06T15:10:01;9.50;58.90
3356;DHT22;1691;52.486;13.374;2024-03-06T15:12:28;9.50;58.90
3356;DHT22;1691;52.486;13.374;2024-03-06T15:14:55;9.50;58.90
3356;DHT22;1691;52.486;13.374;2024-03-06T15:17:25;9.50;58.90
3356;DHT22;1691;52.486;13.374;2024-03-06T15:19:52;9.40;59.00
3356;DHT22;1691;52.486;13.374;2024-03-06T15:22:19;9.50;59.20
3356;DHT22;1691;52.486;13.374;2024-03-06T15:24:47;9.40;59.50
3356;DHT22;1691;52.486;13.374;2024-03-06T15:27:17;9.40;59.80
3356;DHT22;1691;52.486;13.374;2024-03-06T15:29:44;9.40;60.50
3356;DHT22;1691;52.486;13.374;2024-03-06T15:32:11;9.30;61.20
3356;DHT22;1691;52.486;13.374;2024-03-06T15:34:38;9.20;62.00
3356;DHT22;1691;52.486;13.374;2024-03-06T15:37:05;9.20;62.30
3356;DHT22;1691;52.486;13.374;2024-03-06T15:39:34;9.20;62.70
3356;DHT22;1691;52.486;13.374;2024-03-06T15:42:01;9.20;62.90
3356;DHT22;1691;52.486;13.374;2024-03-06T15:44:28;9.20;63.10
3356;DHT22;1691;52.486;13.374;2024-03-06T15:46:55;9.20;63.40
3356;DHT22;1691;52.486;13.374;2024-03-06T15:49:35;9.20;63.60
3356;DHT22;1691;52.486;13.374;2024-03-06T15:52:02;9.20;64.00
3356;DHT22;1691;52.486;13.374;2024-03-06T15:54:30;9.20;64.40
3356;DHT22;1691;52.486;13.374;2024-03-06T15:56:57;9.20;64.70
3356;DHT22;1691;52.486;13.374;2024-03-06T15:59:24;9.20;65.10
3356;DHT22;1691;52.486;13.374;2024-03-06T16:01:52;9.20;65.30
3356;DHT22;1691;52.486;13.374;2024-03-06T16:04:19;9.10;65.70
3356;DHT22;1691;52.486;13.374;2024-03-06T16:06:46;9.10;66.10
3356;DHT22;1691;52.486;13.374;2024-03-06T16:09:13;9.10;66.60
3356;DHT22;1691;52.486;13.374;2024-03-06T16:11:41;9.00;67.00
3356;DHT22;1691;52.486;13.374;2024-03-06T16:14:10;9.00;67.40
3356;DHT22;1691;52.486;13.374;2024-03-06T16:16:41;9.00;67.90